Time;durP1;ratioP1;P1;durP2;ratioP2;P2;SDS_P1;SDS_P2;PMS_P1;PMS_P2;Temp;Humidity;BMP_temperature;BMP_pressure;BME280_temperature;BME280_humidity;BME280_pressure;Samples;Min_cycle;Max_cycle;Signal;HPM_P1;HPM_P2
2023/09/12 00:01:50;;;;;;;;;;;;;;;;;;5019214;28;20411;-85
2023/09/12 00:04:16;;;;;;;;;;;;;;;;;;5003695;28;20272;-86
2023/09/12 00:06:42;;;;;;;;;;;;;;;;;;5022657;28;19924;-86
2023/09/12 00:09:08;;;;;;;;;;;;;;;;;;5011951;28;20301;-85
2023/09/12 00:11:34;;;;;;;;;;;;;;;;;;5002911;28;19932;-86
2023/09/12 00:14:00;;;;;;;;;;;;;;;;;;5011761;28;19917;-87
2023/09/12 00:16:26;;;;;;;;;;;;;;;;;;5027738;28;19959;-88
2023/09/12 00:18:52;;;;;;;;;;;;;;;;;;5003303;28;20373;-88
2023/09/12 00:21:18;;;;;;;;;;;;;;;;;;5029878;28;19912;-85
2023/09/12 00:23:44;;;;;;;;;;;;;;;;;;5021456;28;19949;-86
2023/09/12 00:26:10;;;;;;;;;;;;;;;;;;5007848;28;19913;-86
2023/09/12 00:28:37;;;;;;;;;;;;;;;;;;5009684;28;20361;-87
2023/09/12 00:31:03;;;;;;;;;;;;;;;;;;5018754;28;19924;-85
2023/09/12 00:33:29;;;;;;;;;;;;;;;;;;5002119;28;19913;-85
2023/09/12 00:35:55;;;;;;;;;;;;;;;;;;4994455;28;19913;-84
2023/09/12 00:38:20;;;;;;;;;;;;;;;;;;4996858;28;19928;-85
2023/09/12 00:40:47;;;;;;;;;;;;;;;;;;5001467;28;20319;-85
2023/09/12 00:43:13;;;;;;;;;;;;;;;;;;5011354;28;19921;-84
2023/09/12 00:45:39;;;;;;;;;;;;;;;;;;5018650;28;19916;-84
2023/09/12 00:48:05;;;;;;;;;;;;;;;;;;5023391;28;19909;-84
2023/09/12 00:50:30;;;;;;;;;;;;;;;;;;5020897;28;19967;-86
2023/09/12 00:52:56;;;;;;;;;;;;;;;;;;5019904;28;20268;-85
2023/09/12 00:55:22;;;;;;;;;;;;;;;;;;5036697;28;19928;-85
2023/09/12 00:57:48;;;;;;;;;;;;;;;;;;5021210;28;20366;-84
2023/09/12 01:00:14;;;;;;;;;;;;;;;;;;5018814;28;19913;-87
2023/09/12 01:02:40;;;;;;;;;;;;;;;;;;5018686;28;19913;-86
2023/09/12 01:05:06;;;;;;;;;;;;;;;;;;5016730;28;19925;-86
2023/09/12 01:07:32;;;;;;;;;;;;;;;;;;5012446;28;19913;-85
2023/09/12 01:09:58;;;;;;;;;;;;;;;;;;5026857;28;19971;-86
2023/09/12 01:12:23;;;;;;;;;;;;;;;;;;5026383;28;19913;-87
2023/09/12 01:14:49;;;;;;;;;;;;;;;;;;5019147;28;19964;-86
2023/09/12 01:17:15;;;;;;;;;;;;;;;;;;5012787;28;20404;-86
2023/09/12 01:19:41;;;;;;;;;;;;;;;;;;5012405;28;20009;-86
2023/09/12 01:22:07;;;;;;;;;;;;;;;;;;5009910;28;19913;-85
2023/09/12 01:24:33;;;;;;;;;;;;;;;;;;5012527;28;19947;-85
2023/09/12 01:26:59;;;;;;;;;;;;;;;;;;4996167;28;19914;-87
2023/09/12 01:29:25;;;;;;;;;;;;;;;;;;5008608;28;19910;-85
2023/09/12 01:31:51;;;;;;;;;;;;;;;;;;5007942;28;19916;-87
2023/09/12 01:34:16;;;;;;;;;;;;;;;;;;5006045;28;19923;-85
2023/09/12 01:36:42;;;;;;;;;;;;;;;;;;5014276;28;19917;-86
2023/09/12 01:39:08;;;;;;;;;;;;;;;;;;5010750;28;19910;-86
2023/09/12 01:41:34;;;;;;;;;;;;;;;;;;5003124;28;19953;-86
2023/09/12 01:44:00;;;;;;;;;;;;;;;;;;5010171;28;20337;-86
2023/09/12 01:46:26;;;;;;;;;;;;;;;;;;5020184;28;20370;-86
2023/09/12 01:48:52;;;;;;;;;;;;;;;;;;5004591;28;19951;-86
2023/09/12 01:51:18;;;;;;;;;;;;;;;;;;5006772;28;19913;-86
2023/09/12 01:53:44;;;;;;;;;;;;;;;;;;5004161;28;20413;-86
2023/09/12 01:56:10;;;;;;;;;;;;;;;;;;5011789;28;20008;-86
2023/09/12 01:58:36;;;;;;;;;;;;;;;;;;5011808;28;19913;-86
2023/09/12 02:01:02;;;;;;;;;;;;;;;;;;5009736;28;19920;-87
2023/09/12 02:03:28;;;;;;;;;;;;;;;;;;5012063;28;19909;-86
2023/09/12 02:05:54;;;;;;;;;;;;;;;;;;5030460;28;19909;-86
2023/09/12 02:08:20;;;;;;;;;;;;;;;;;;5019849;28;19912;-86
2023/09/12 02:10:46;;;;;;;;;;;;;;;;;;5001179;28;19917;-86
2023/09/12 02:13:11;;;;;;;;;;;;;;;;;;5022350;28;20072;-86
2023/09/12 02:15:37;;;;;;;;;;;;;;;;;;5011312;28;19918;-86
2023/09/12 02:18:03;;;;;;;;;;;;;;;;;;5020814;28;19913;-87
2023/09/12 02:20:29;;;;;;;;;;;;;;;;;;4996672;28;19910;-86
2023/09/12 02:22:55;;;;;;;;;;;;;;;;;;5011753;28;19909;-86
2023/09/12 02:25:21;;;;;;;;;;;;;;;;;;5005554;28;20495;-87
2023/09/12 02:27:47;;;;;;;;;;;;;;;;;;5004805;28;19916;-86
2023/09/12 02:30:13;;;;;;;;;;;;;;;;;;5006616;28;19920;-86
2023/09/12 02:32:38;;;;;;;;;;;;;;;;;;5008158;28;19960;-86
2023/09/12 02:35:04;;;;;;;;;;;;;;;;;;5025881;28;19921;-86
2023/09/12 02:37:30;;;;;;;;;;;;;;;;;;5012321;28;19909;-86
2023/09/12 02:39:56;;;;;;;;;;;;;;;;;;5016188;28;19928;-86
2023/09/12 02:42:24;;;;;;;;;;;;;;;;;;5007315;28;19928;-86
2023/09/12 02:44:49;;;;;;;;;;;;;;;;;;5001577;28;19909;-86
2023/09/12 02:47:15;;;;;;;;;;;;;;;;;;5004376;28;20008;-86
2023/09/12 02:49:41;;;;;;;;;;;;;;;;;;5003506;28;19913;-86
2023/09/12 02:52:07;;;;;;;;;;;;;;;;;;5015264;28;19916;-87
2023/09/12 02:54:33;;;;;;;;;;;;;;;;;;5017811;28;19988;-85
2023/09/12 02:56:59;;;;;;;;;;;;;;;;;;5016421;28;19935;-85
2023/09/12 02:59:25;;;;;;;;;;;;;;;;;;5006946;28;19920;-85
2023/09/12 03:01:51;;;;;;;;;;;;;;;;;;5008565;28;20354;-85
2023/09/12 03:04:17;;;;;;;;;;;;;;;;;;4997834;28;19980;-84
2023/09/12 03:06:43;;;;;;;;;;;;;;;;;;5010822;28;19917;-85
2023/09/12 03:09:11;;;;;;;;;;;;;;;;;;4996748;28;19975;-83
2023/09/12 03:11:36;;;;;;;;;;;;;;;;;;5011745;28;19916;-84
2023/09/12 03:14:02;;;;;;;;;;;;;;;;;;5005121;28;19917;-85
2023/09/12 03:16:28;;;;;;;;;;;;;;;;;;5009153;28;20023;-84
2023/09/12 03:18:54;;;;;;;;;;;;;;;;;;5009376;28;19971;-85
2023/09/12 03:21:20;;;;;;;;;;;;;;;;;;5009548;28;20376;-86
2023/09/12 03:23:46;;;;;;;;;;;;;;;;;;5010796;28;19920;-85
2023/09/12 03:26:12;;;;;;;;;;;;;;;;;;5020783;28;19939;-85
2023/09/12 03:28:38;;;;;;;;;;;;;;;;;;5014248;28;19915;-86
2023/09/12 03:31:04;;;;;;;;;;;;;;;;;;5013972;28;20007;-86
2023/09/12 03:33:30;;;;;;;;;;;;;;;;;;5017428;28;19964;-86
2023/09/12 03:35:56;;;;;;;;;;;;;;;;;;5009635;28;20278;-86
2023/09/12 03:38:22;;;;;;;;;;;;;;;;;;5031012;28;19925;-86
2023/09/12 03:40:48;;;;;;;;;;;;;;;;;;5010876;28;20007;-86
2023/09/12 03:43:14;;;;;;;;;;;;;;;;;;5030541;28;19909;-86
2023/09/12 03:45:39;;;;;;;;;;;;;;;;;;5011044;28;19959;-87
2023/09/12 03:48:05;;;;;;;;;;;;;;;;;;5022413;28;19966;-87
2023/09/12 03:50:31;;;;;;;;;;;;;;;;;;5027393;28;19911;-88
2023/09/12 03:52:57;;;;;;;;;;;;;;;;;;5027998;28;19959;-85
2023/09/12 03:55:23;;;;;;;;;;;;;;;;;;5029611;28;19925;-86
2023/09/12 03:57:49;;;;;;;;;;;;;;;;;;5012855;28;19984;-87
2023/09/12 04:00:15;;;;;;;;;;;;;;;;;;5002874;28;19909;-86
2023/09/12 04:02:41;;;;;;;;;;;;;;;;;;5017934;28;19914;-86
2023/09/12 04:05:07;;;;;;;;;;;;;;;;;;5002991;28;20300;-87
2023/09/12 04:07:32;;;;;;;;;;;;;;;;;;5014533;28;20391;-86
2023/09/12 04:09:58;;;;;;;;;;;;;;;;;;5014417;28;20119;-87
2023/09/12 04:12:24;;;;;;;;;;;;;;;;;;5004708;28;19920;-87
2023/09/12 04:14:54;;;;;;;;;;;;;;;;;;5003679;28;19917;-87
2023/09/12 04:17:20;;;;;;;;;;;;;;;;;;5018667;28;19921;-86
2023/09/12 04:19:46;;;;;;;;;;;;;;;;;;5011142;28;19917;-86
2023/09/12 04:22:12;;;;;;;;;;;;;;;;;;5001034;28;20273;-87
2023/09/12 04:24:38;;;;;;;;;;;;;;;;;;4999134;28;19956;-87
2023/09/12 04:27:04;;;;;;;;;;;;;;;;;;5007823;28;19909;-87
2023/09/12 04:29:30;;;;;;;;;;;;;;;;;;4996965;28;20000;-86
2023/09/12 04:31:59;;;;;;;;;;;;;;;;;;5006698;28;20020;-87
2023/09/12 04:34:25;;;;;;;;;;;;;;;;;;5005272;28;20361;-87
2023/09/12 04:36:51;;;;;;;;;;;;;;;;;;5007621;28;19933;-87
2023/09/12 04:39:17;;;;;;;;;;;;;;;;;;5010635;28;19917;-88
2023/09/12 04:41:43;;;;;;;;;;;;;;;;;;5016412;28;20293;-87
2023/09/12 04:44:09;;;;;;;;;;;;;;;;;;5014711;28;19974;-88
2023/09/12 04:46:35;;;;;;;;;;;;;;;;;;5010321;28;19970;-86
2023/09/12 04:49:02;;;;;;;;;;;;;;;;;;5008790;28;19917;-89
2023/09/12 04:51:28;;;;;;;;;;;;;;;;;;5014605;28;20003;-89
2023/09/12 04:53:54;;;;;;;;;;;;;;;;;;5014179;28;19909;-89
2023/09/12 04:56:20;;;;;;;;;;;;;;;;;;5004094;28;19913;-88
2023/09/12 04:58:46;;;;;;;;;;;;;;;;;;4994510;28;20290;-88
2023/09/12 05:01:12;;;;;;;;;;;;;;;;;;4996302;28;19968;-89
2023/09/12 05:03:38;;;;;;;;;;;;;;;;;;5022219;28;20387;-89
2023/09/12 05:06:04;;;;;;;;;;;;;;;;;;5005193;28;20345;-85
2023/09/12 05:08:30;;;;;;;;;;;;;;;;;;5009992;28;19909;-85
2023/09/12 05:10:56;;;;;;;;;;;;;;;;;;5027463;28;19963;-86
2023/09/12 05:13:21;;;;;;;;;;;;;;;;;;5005844;28;19917;-86
2023/09/12 05:15:47;;;;;;;;;;;;;;;;;;5022165;28;20258;-86
2023/09/12 05:18:14;;;;;;;;;;;;;;;;;;5005232;28;20008;-86
2023/09/12 05:20:40;;;;;;;;;;;;;;;;;;5005744;28;20328;-86
2023/09/12 05:23:05;;;;;;;;;;;;;;;;;;5005979;28;20354;-85
2023/09/12 05:25:31;;;;;;;;;;;;;;;;;;5006081;28;19935;-86
2023/09/12 05:27:57;;;;;;;;;;;;;;;;;;4998670;28;20389;-85
2023/09/12 05:30:23;;;;;;;;;;;;;;;;;;5010336;28;20381;-88
2023/09/12 05:32:49;;;;;;;;;;;;;;;;;;4998355;28;19914;-89
2023/09/12 05:35:15;;;;;;;;;;;;;;;;;;5002161;28;19920;-87
2023/09/12 05:37:41;;;;;;;;;;;;;;;;;;5001632;28;19976;-88
2023/09/12 05:40:07;;;;;;;;;;;;;;;;;;5010109;28;20004;-86
2023/09/12 05:42:32;;;;;;;;;;;;;;;;;;5012352;28;20360;-83
2023/09/12 05:44:58;;;;;;;;;;;;;;;;;;5018296;28;19910;-81
2023/09/12 05:47:24;;;;;;;;;;;;;;;;;;5014572;28;19913;-82
2023/09/12 05:49:50;;;;;;;;;;;;;;;;;;5010984;28;19948;-82
2023/09/12 05:52:16;;;;;;;;;;;;;;;;;;5015977;28;19917;-81
2023/09/12 05:54:42;;;;;;;;;;;;;;;;;;5010014;28;20001;-83
2023/09/12 05:57:08;;;;;;;;;;;;;;;;;;5004716;28;20392;-82
2023/09/12 05:59:34;;;;;;;;;;;;;;;;;;5004373;28;19949;-82
2023/09/12 06:02:00;;;;;;;;;;;;;;;;;;5004478;28;19913;-81
2023/09/12 06:04:26;;;;;;;;;;;;;;;;;;4999950;28;20534;-82
2023/09/12 06:06:51;;;;;;;;;;;;;;;;;;5009964;28;20674;-82
2023/09/12 06:09:17;;;;;;;;;;;;;;;;;;5004515;28;20350;-81
2023/09/12 06:11:43;;;;;;;;;;;;;;;;;;5012267;28;19917;-81
2023/09/12 06:14:09;;;;;;;;;;;;;;;;;;5003059;28;20035;-81
2023/09/12 06:16:35;;;;;;;;;;;;;;;;;;4998598;28;19913;-82
2023/09/12 06:19:01;;;;;;;;;;;;;;;;;;5004385;28;19913;-82
2023/09/12 06:21:27;;;;;;;;;;;;;;;;;;5016433;28;20354;-85
2023/09/12 06:23:53;;;;;;;;;;;;;;;;;;5014571;28;19917;-82
2023/09/12 06:26:18;;;;;;;;;;;;;;;;;;5008880;28;20291;-82
2023/09/12 06:28:44;;;;;;;;;;;;;;;;;;5002820;28;19909;-81
2023/09/12 06:31:10;;;;;;;;;;;;;;;;;;5009715;28;19913;-82
2023/09/12 06:33:36;;;;;;;;;;;;;;;;;;5002039;28;19916;-81
2023/09/12 06:36:02;;;;;;;;;;;;;;;;;;5002476;28;19999;-82
2023/09/12 06:38:28;;;;;;;;;;;;;;;;;;5010883;28;19917;-82
2023/09/12 06:40:55;;;;;;;;;;;;;;;;;;5002459;28;19983;-83
2023/09/12 06:43:21;;;;;;;;;;;;;;;;;;5008036;28;19925;-82
2023/09/12 06:45:47;;;;;;;;;;;;;;;;;;5015758;28;19913;-81
2023/09/12 06:48:13;;;;;;;;;;;;;;;;;;5011391;28;20020;-82
2023/09/12 06:50:39;;;;;;;;;;;;;;;;;;4997758;28;19973;-85
2023/09/12 06:53:06;;;;;;;;;;;;;;;;;;5011483;28;19983;-82
2023/09/12 06:55:32;;;;;;;;;;;;;;;;;;5019971;28;20377;-82
2023/09/12 06:57:58;;;;;;;;;;;;;;;;;;5010474;28;19921;-81
2023/09/12 07:00:26;;;;;;;;;;;;;;;;;;5011349;28;19920;-85
2023/09/12 07:02:52;;;;;;;;;;;;;;;;;;5010535;28;20011;-82
2023/09/12 07:05:18;;;;;;;;;;;;;;;;;;5016899;28;20004;-81
2023/09/12 07:07:44;;;;;;;;;;;;;;;;;;5011253;28;20411;-82
2023/09/12 07:10:10;;;;;;;;;;;;;;;;;;5016949;28;19916;-84
2023/09/12 07:12:36;;;;;;;;;;;;;;;;;;5028858;28;19916;-81
2023/09/12 07:15:02;;;;;;;;;;;;;;;;;;5007524;28;19917;-81
2023/09/12 07:17:28;;;;;;;;;;;;;;;;;;5007935;28;19910;-82
2023/09/12 07:19:54;;;;;;;;;;;;;;;;;;5004301;28;19937;-81
2023/09/12 07:22:20;;;;;;;;;;;;;;;;;;5007151;28;19953;-84
2023/09/12 07:24:46;;;;;;;;;;;;;;;;;;4999266;28;19909;-82
2023/09/12 07:27:12;;;;;;;;;;;;;;;;;;5000829;28;19955;-82
2023/09/12 07:29:38;;;;;;;;;;;;;;;;;;5002811;28;19913;-82
2023/09/12 07:32:03;;;;;;;;;;;;;;;;;;5010847;28;20012;-82
2023/09/12 07:34:29;;;;;;;;;;;;;;;;;;4994615;28;20426;-81
2023/09/12 07:36:55;;;;;;;;;;;;;;;;;;5002682;28;19909;-81
2023/09/12 07:39:21;;;;;;;;;;;;;;;;;;4999938;28;20386;-82
2023/09/12 07:41:47;;;;;;;;;;;;;;;;;;4996952;28;20354;-82
2023/09/12 07:44:15;;;;;;;;;;;;;;;;;;5001254;28;19929;-81
2023/09/12 07:46:41;;;;;;;;;;;;;;;;;;5013768;28;19920;-83
2023/09/12 07:49:09;;;;;;;;;;;;;;;;;;4994987;28;19909;-81
2023/09/12 07:51:34;;;;;;;;;;;;;;;;;;5002084;28;20415;-81
2023/09/12 07:54:00;;;;;;;;;;;;;;;;;;5002134;28;19917;-83
2023/09/12 07:56:26;;;;;;;;;;;;;;;;;;4998705;28;19913;-82
2023/09/12 07:58:52;;;;;;;;;;;;;;;;;;4990741;28;19920;-85
2023/09/12 08:01:18;;;;;;;;;;;;;;;;;;4998681;28;20043;-82
2023/09/12 08:03:44;;;;;;;;;;;;;;;;;;5004276;28;19909;-81
2023/09/12 08:06:10;;;;;;;;;;;;;;;;;;5002249;28;19975;-81
2023/09/12 08:08:36;;;;;;;;;;;;;;;;;;5017788;28;19917;-81
2023/09/12 08:11:02;;;;;;;;;;;;;;;;;;5001680;28;20428;-83
2023/09/12 08:13:28;;;;;;;;;;;;;;;;;;5010220;28;19924;-81
2023/09/12 08:15:54;;;;;;;;;;;;;;;;;;5002150;28;19921;-81
2023/09/12 08:18:20;;;;;;;;;;;;;;;;;;4999651;28;19967;-81
2023/09/12 08:20:46;;;;;;;;;;;;;;;;;;4995673;28;19909;-81
2023/09/12 08:23:11;;;;;;;;;;;;;;;;;;5001665;28;20350;-84
2023/09/12 08:25:37;;;;;;;;;;;;;;;;;;5001731;28;19909;-82
2023/09/12 08:28:03;;;;;;;;;;;;;;;;;;4993174;28;19999;-82
2023/09/12 08:30:29;;;;;;;;;;;;;;;;;;4998115;28;19910;-81
2023/09/12 08:32:55;;;;;;;;;;;;;;;;;;4997293;28;19909;-82
2023/09/12 08:35:21;;;;;;;;;;;;;;;;;;5006003;28;19920;-83
2023/09/12 08:37:47;;;;;;;;;;;;;;;;;;5004057;28;20007;-81
2023/09/12 08:40:13;;;;;;;;;;;;;;;;;;5000776;28;20051;-82
2023/09/12 08:42:40;;;;;;;;;;;;;;;;;;5001161;28;19932;-82
2023/09/12 08:45:06;;;;;;;;;;;;;;;;;;4993310;28;19983;-82
2023/09/12 08:47:32;;;;;;;;;;;;;;;;;;5001554;28;20519;-82
2023/09/12 08:50:00;;;;;;;;;;;;;;;;;;5013452;28;20353;-85
2023/09/12 08:52:25;;;;;;;;;;;;;;;;;;5006850;28;19992;-83
2023/09/12 08:54:51;;;;;;;;;;;;;;;;;;4997472;28;19921;-83
2023/09/12 08:57:17;;;;;;;;;;;;;;;;;;5011122;28;19933;-82
2023/09/12 08:59:43;;;;;;;;;;;;;;;;;;5007426;28;20000;-81
2023/09/12 09:02:09;;;;;;;;;;;;;;;;;;5012436;28;20008;-82
2023/09/12 09:04:35;;;;;;;;;;;;;;;;;;4994133;28;19944;-82
2023/09/12 09:07:01;;;;;;;;;;;;;;;;;;5011213;28;20257;-84
2023/09/12 09:09:28;;;;;;;;;;;;;;;;;;5012174;28;19979;-82
2023/09/12 09:11:54;;;;;;;;;;;;;;;;;;5003364;28;20345;-82
2023/09/12 09:14:20;;;;;;;;;;;;;;;;;;5022556;28;19917;-84
2023/09/12 09:16:46;;;;;;;;;;;;;;;;;;5012507;28;19909;-82
2023/09/12 09:19:12;;;;;;;;;;;;;;;;;;5003686;28;19967;-82
2023/09/12 09:21:39;;;;;;;;;;;;;;;;;;5003498;28;19921;-84
2023/09/12 09:24:04;;;;;;;;;;;;;;;;;;4999934;28;20011;-82
2023/09/12 09:26:30;;;;;;;;;;;;;;;;;;5021767;28;19909;-84
2023/09/12 09:28:56;;;;;;;;;;;;;;;;;;5011194;28;19924;-82
2023/09/12 09:31:22;;;;;;;;;;;;;;;;;;5009905;28;19956;-83
2023/09/12 09:33:51;;;;;;;;;;;;;;;;;;5023084;28;19915;-83
2023/09/12 09:36:17;;;;;;;;;;;;;;;;;;4999354;28;20387;-83
2023/09/12 09:38:43;;;;;;;;;;;;;;;;;;5009622;28;19953;-83
2023/09/12 09:41:09;;;;;;;;;;;;;;;;;;5008632;28;19914;-88
2023/09/12 09:43:35;;;;;;;;;;;;;;;;;;4992609;28;20277;-82
2023/09/12 09:46:01;;;;;;;;;;;;;;;;;;5003362;28;19913;-85
2023/09/12 09:48:27;;;;;;;;;;;;;;;;;;5019493;28;20055;-81
2023/09/12 09:50:53;;;;;;;;;;;;;;;;;;4998427;28;19921;-84
2023/09/12 09:53:19;;;;;;;;;;;;;;;;;;5002285;28;19972;-85
2023/09/12 09:55:45;;;;;;;;;;;;;;;;;;5010163;28;20424;-82
2023/09/12 09:58:15;;;;;;;;;;;;;;;;;;5000535;28;19917;-83
2023/09/12 10:00:41;;;;;;;;;;;;;;;;;;5002144;28;19913;-85
2023/09/12 10:03:07;;;;;;;;;;;;;;;;;;5011838;28;20318;-86
2023/09/12 10:05:33;;;;;;;;;;;;;;;;;;5022787;28;19988;-86
2023/09/12 10:07:59;;;;;;;;;;;;;;;;;;5026356;28;20507;-85
2023/09/12 10:10:25;;;;;;;;;;;;;;;;;;5024119;28;19933;-84
2023/09/12 10:12:50;;;;;;;;;;;;;;;;;;5018386;28;19914;-87
2023/09/12 10:15:16;;;;;;;;;;;;;;;;;;5024495;28;19963;-87
2023/09/12 10:17:42;;;;;;;;;;;;;;;;;;5024600;28;19919;-87
2023/09/12 10:20:11;;;;;;;;;;;;;;;;;;5046904;28;19940;-84
2023/09/12 10:22:37;;;;;;;;;;;;;;;;;;5025432;28;20358;-86
2023/09/12 10:25:04;;;;;;;;;;;;;;;;;;5026219;28;19909;-86
2023/09/12 10:27:30;;;;;;;;;;;;;;;;;;5020274;28;19917;-85
2023/09/12 10:29:59;;;;;;;;;;;;;;;;;;5018945;28;19985;-85
2023/09/12 10:32:26;;;;;;;;;;;;;;;;;;5011102;28;19932;-86
2023/09/12 10:34:52;;;;;;;;;;;;;;;;;;5012585;28;19975;-85
2023/09/12 10:37:18;;;;;;;;;;;;;;;;;;5017091;28;19960;-85
2023/09/12 10:39:44;;;;;;;;;;;;;;;;;;5011661;28;20312;-85
2023/09/12 10:42:12;;;;;;;;;;;;;;;;;;5008122;28;20011;-86
2023/09/12 10:44:39;;;;;;;;;;;;;;;;;;5008194;28;19972;-85
2023/09/12 10:47:06;;;;;;;;;;;;;;;;;;5002298;28;19917;-86
2023/09/12 10:49:31;;;;;;;;;;;;;;;;;;5007556;28;19948;-86
2023/09/12 10:51:57;;;;;;;;;;;;;;;;;;5031289;28;19995;-87
2023/09/12 10:54:23;;;;;;;;;;;;;;;;;;5013913;28;20397;-87
2023/09/12 10:56:50;;;;;;;;;;;;;;;;;;5025087;28;19909;-86
2023/09/12 10:59:16;;;;;;;;;;;;;;;;;;5005042;28;20339;-87
2023/09/12 11:01:42;;;;;;;;;;;;;;;;;;4999258;28;19916;-86
2023/09/12 11:04:09;;;;;;;;;;;;;;;;;;5019174;28;19956;-87
2023/09/12 11:06:34;;;;;;;;;;;;;;;;;;5008042;28;20018;-86
2023/09/12 11:09:01;;;;;;;;;;;;;;;;;;5010808;28;19913;-87
2023/09/12 11:11:27;;;;;;;;;;;;;;;;;;5012173;28;20291;-86
2023/09/12 11:13:53;;;;;;;;;;;;;;;;;;5008122;28;19921;-87
2023/09/12 11:16:20;;;;;;;;;;;;;;;;;;5004290;28;19992;-86
2023/09/12 11:18:46;;;;;;;;;;;;;;;;;;5020089;28;19944;-86
2023/09/12 11:21:12;;;;;;;;;;;;;;;;;;5006436;28;20015;-87
2023/09/12 11:23:39;;;;;;;;;;;;;;;;;;5006345;28;19920;-87
2023/09/12 11:26:05;;;;;;;;;;;;;;;;;;5008401;28;19934;-87
2023/09/12 11:28:32;;;;;;;;;;;;;;;;;;5006145;28;20500;-87
2023/09/12 11:30:58;;;;;;;;;;;;;;;;;;5010729;28;20277;-86
2023/09/12 11:33:23;;;;;;;;;;;;;;;;;;5008461;28;19917;-87
2023/09/12 11:35:49;;;;;;;;;;;;;;;;;;5014519;28;19940;-87
2023/09/12 11:38:15;;;;;;;;;;;;;;;;;;5015640;28;20349;-87
2023/09/12 11:40:41;;;;;;;;;;;;;;;;;;5006848;28;19909;-88
2023/09/12 11:43:07;;;;;;;;;;;;;;;;;;5005543;28;19964;-87
2023/09/12 11:45:33;;;;;;;;;;;;;;;;;;4998039;28;19916;-87
2023/09/12 11:47:59;;;;;;;;;;;;;;;;;;5002959;28;19917;-88
2023/09/12 11:50:25;;;;;;;;;;;;;;;;;;4997559;28;19913;-89
2023/09/12 11:52:51;;;;;;;;;;;;;;;;;;5000405;28;20004;-87
2023/09/12 11:55:17;;;;;;;;;;;;;;;;;;5006528;28;19917;-86
2023/09/12 11:57:43;;;;;;;;;;;;;;;;;;5023253;28;19921;-86
2023/09/12 12:00:09;;;;;;;;;;;;;;;;;;5007474;28;19909;-87
2023/09/12 12:02:35;;;;;;;;;;;;;;;;;;5019732;28;20304;-86
2023/09/12 12:05:01;;;;;;;;;;;;;;;;;;5007879;28;19924;-86
2023/09/12 12:07:27;;;;;;;;;;;;;;;;;;5000762;28;19914;-86
2023/09/12 12:09:52;;;;;;;;;;;;;;;;;;5005616;28;19913;-87
2023/09/12 12:12:18;;;;;;;;;;;;;;;;;;5015854;28;19971;-87
2023/09/12 12:14:44;;;;;;;;;;;;;;;;;;5017211;28;20007;-86
2023/09/12 12:17:10;;;;;;;;;;;;;;;;;;5012775;28;20023;-87
2023/09/12 12:19:36;;;;;;;;;;;;;;;;;;5011727;28;19960;-87
2023/09/12 12:22:02;;;;;;;;;;;;;;;;;;5013179;28;20350;-86
2023/09/12 12:24:28;;;;;;;;;;;;;;;;;;5010947;28;19967;-87
2023/09/12 12:26:54;;;;;;;;;;;;;;;;;;5005819;28;19921;-86
2023/09/12 12:29:20;;;;;;;;;;;;;;;;;;5016792;28;19974;-88
2023/09/12 12:31:46;;;;;;;;;;;;;;;;;;5005794;28;19920;-86
2023/09/12 12:34:12;;;;;;;;;;;;;;;;;;5012581;28;19944;-86
2023/09/12 12:36:38;;;;;;;;;;;;;;;;;;4998839;28;20151;-86
2023/09/12 12:39:04;;;;;;;;;;;;;;;;;;5002227;28;19917;-86
2023/09/12 12:41:30;;;;;;;;;;;;;;;;;;5014376;28;20008;-87
2023/09/12 12:43:58;;;;;;;;;;;;;;;;;;4998151;28;20100;-85
2023/09/12 12:46:24;;;;;;;;;;;;;;;;;;5002019;28;19923;-86
2023/09/12 12:48:50;;;;;;;;;;;;;;;;;;5006640;28;19917;-86
2023/09/12 12:51:16;;;;;;;;;;;;;;;;;;5005445;28;19917;-86
2023/09/12 12:53:42;;;;;;;;;;;;;;;;;;5006056;28;20416;-86
2023/09/12 12:56:08;;;;;;;;;;;;;;;;;;5004418;28;19921;-87
2023/09/12 12:58:35;;;;;;;;;;;;;;;;;;5011526;28;19976;-87
2023/09/12 13:01:00;;;;;;;;;;;;;;;;;;5000786;28;20409;-89
2023/09/12 13:03:26;;;;;;;;;;;;;;;;;;5010664;28;19945;-86
2023/09/12 13:05:52;;;;;;;;;;;;;;;;;;5011273;28;19913;-86
2023/09/12 13:08:18;;;;;;;;;;;;;;;;;;5003692;28;20329;-89
2023/09/12 13:10:47;;;;;;;;;;;;;;;;;;5003010;28;19971;-86
2023/09/12 13:13:13;;;;;;;;;;;;;;;;;;5008788;28;20377;-86
2023/09/12 13:15:39;;;;;;;;;;;;;;;;;;5005107;28;20004;-80
2023/09/12 13:18:05;;;;;;;;;;;;;;;;;;4997886;28;19921;-79
2023/09/12 13:20:31;;;;;;;;;;;;;;;;;;5012568;28;19921;-82
2023/09/12 13:22:57;;;;;;;;;;;;;;;;;;5004257;28;19913;-81
2023/09/12 13:25:23;;;;;;;;;;;;;;;;;;5000445;28;19915;-81
2023/09/12 13:27:49;;;;;;;;;;;;;;;;;;5003326;28;20246;-80
2023/09/12 13:30:15;;;;;;;;;;;;;;;;;;5014125;28;19920;-80
2023/09/12 13:32:41;;;;;;;;;;;;;;;;;;5015209;28;20394;-82
2023/09/12 13:35:07;;;;;;;;;;;;;;;;;;5019512;28;19917;-80
2023/09/12 13:37:33;;;;;;;;;;;;;;;;;;5023125;28;19978;-80
2023/09/12 13:39:59;;;;;;;;;;;;;;;;;;4996618;28;19917;-82
2023/09/12 13:42:30;;;;;;;;;;;;;;;;;;5004266;28;19913;-80
2023/09/12 13:44:56;;;;;;;;;;;;;;;;;;5001380;28;20293;-80
2023/09/12 13:47:22;;;;;;;;;;;;;;;;;;5000685;28;19909;-79
2023/09/12 13:49:48;;;;;;;;;;;;;;;;;;5001666;28;20392;-80
2023/09/12 13:52:17;;;;;;;;;;;;;;;;;;5012389;28;19913;-81
2023/09/12 13:54:43;;;;;;;;;;;;;;;;;;5008132;28;20376;-81
2023/09/12 13:57:09;;;;;;;;;;;;;;;;;;5021145;28;20011;-80
2023/09/12 13:59:35;;;;;;;;;;;;;;;;;;5000680;28;19996;-80
2023/09/12 14:02:01;;;;;;;;;;;;;;;;;;5001234;28;19921;-82
2023/09/12 14:04:27;;;;;;;;;;;;;;;;;;5005758;28;19913;-80
2023/09/12 14:06:53;;;;;;;;;;;;;;;;;;4999998;28;19980;-80
2023/09/12 14:09:18;;;;;;;;;;;;;;;;;;5007049;28;19967;-80
2023/09/12 14:11:46;;;;;;;;;;;;;;;;;;5021904;28;19917;-80
2023/09/12 14:14:12;;;;;;;;;;;;;;;;;;4992130;28;19921;-83
2023/09/12 14:16:38;;;;;;;;;;;;;;;;;;5013281;28;19916;-81
2023/09/12 14:19:04;;;;;;;;;;;;;;;;;;5009300;28;19944;-80
2023/09/12 14:21:30;;;;;;;;;;;;;;;;;;5010742;28;19909;-81
2023/09/12 14:23:56;;;;;;;;;;;;;;;;;;5013287;28;19914;-80
2023/09/12 14:26:22;;;;;;;;;;;;;;;;;;5021738;28;20349;-81
2023/09/12 14:28:48;;;;;;;;;;;;;;;;;;5014531;28;19960;-82
2023/09/12 14:31:15;;;;;;;;;;;;;;;;;;5016724;28;19914;-80
2023/09/12 14:33:41;;;;;;;;;;;;;;;;;;5007281;28;19913;-80
2023/09/12 14:36:07;;;;;;;;;;;;;;;;;;5000732;28;19984;-80
2023/09/12 14:38:32;;;;;;;;;;;;;;;;;;5004005;28;19978;-81
2023/09/12 14:40:58;;;;;;;;;;;;;;;;;;5007589;28;20391;-82
2023/09/12 14:43:24;;;;;;;;;;;;;;;;;;5008110;28;19914;-80
2023/09/12 14:45:50;;;;;;;;;;;;;;;;;;5001702;28;20000;-79
2023/09/12 14:48:16;;;;;;;;;;;;;;;;;;5024927;28;19924;-80
2023/09/12 14:50:42;;;;;;;;;;;;;;;;;;5011478;28;19920;-80
2023/09/12 14:53:08;;;;;;;;;;;;;;;;;;5033919;28;19933;-82
2023/09/12 14:55:34;;;;;;;;;;;;;;;;;;5046674;28;19941;-81
2023/09/12 14:58:00;;;;;;;;;;;;;;;;;;5027598;28;19913;-81
2023/09/12 15:00:26;;;;;;;;;;;;;;;;;;5008176;28;19944;-79
2023/09/12 15:02:51;;;;;;;;;;;;;;;;;;5012231;28;20027;-80
2023/09/12 15:05:17;;;;;;;;;;;;;;;;;;5011672;28;19917;-81
2023/09/12 15:07:43;;;;;;;;;;;;;;;;;;5003628;28;19916;-79
2023/09/12 15:10:09;;;;;;;;;;;;;;;;;;5019403;28;20000;-80
2023/09/12 15:12:35;;;;;;;;;;;;;;;;;;5011949;28;19956;-79
2023/09/12 15:15:01;;;;;;;;;;;;;;;;;;5028008;28;19916;-79
2023/09/12 15:17:27;;;;;;;;;;;;;;;;;;5007250;28;19914;-79
2023/09/12 15:19:53;;;;;;;;;;;;;;;;;;5022145;28;19917;-81
2023/09/12 15:22:19;;;;;;;;;;;;;;;;;;5008988;28;19953;-80
2023/09/12 15:24:45;;;;;;;;;;;;;;;;;;5010939;28;20376;-80
2023/09/12 15:27:10;;;;;;;;;;;;;;;;;;5019767;28;20333;-80
2023/09/12 15:29:36;;;;;;;;;;;;;;;;;;4998762;28;20362;-82
2023/09/12 15:32:02;;;;;;;;;;;;;;;;;;5014150;28;20016;-81
2023/09/12 15:34:28;;;;;;;;;;;;;;;;;;4999059;28;20341;-80
2023/09/12 15:36:54;;;;;;;;;;;;;;;;;;5018970;28;19978;-80
2023/09/12 15:39:20;;;;;;;;;;;;;;;;;;5002918;28;19913;-80
2023/09/12 15:41:46;;;;;;;;;;;;;;;;;;5001091;28;19918;-80
2023/09/12 15:44:12;;;;;;;;;;;;;;;;;;5021856;28;19913;-81
2023/09/12 15:46:38;;;;;;;;;;;;;;;;;;5006293;28;19910;-79
2023/09/12 15:49:04;;;;;;;;;;;;;;;;;;5025690;28;19940;-80
2023/09/12 15:51:30;;;;;;;;;;;;;;;;;;5001914;28;20332;-79
2023/09/12 15:53:57;;;;;;;;;;;;;;;;;;5019244;28;19944;-80
2023/09/12 15:56:23;;;;;;;;;;;;;;;;;;5005398;28;20328;-80
2023/09/12 15:58:49;;;;;;;;;;;;;;;;;;5005248;28;19909;-80
2023/09/12 16:01:15;;;;;;;;;;;;;;;;;;4993852;28;19918;-80
2023/09/12 16:03:41;;;;;;;;;;;;;;;;;;4993082;28;19917;-80
2023/09/12 16:06:06;;;;;;;;;;;;;;;;;;4991558;28;19914;-79
2023/09/12 16:08:33;;;;;;;;;;;;;;;;;;5021320;28;20361;-80
2023/09/12 16:10:59;;;;;;;;;;;;;;;;;;5009636;28;19944;-80
2023/09/12 16:13:25;;;;;;;;;;;;;;;;;;5017127;28;20346;-80
2023/09/12 16:15:51;;;;;;;;;;;;;;;;;;5010207;28;19917;-80
2023/09/12 16:18:16;;;;;;;;;;;;;;;;;;5016999;28;20349;-80
2023/09/12 16:20:42;;;;;;;;;;;;;;;;;;5005045;28;19914;-81
2023/09/12 16:23:08;;;;;;;;;;;;;;;;;;5007525;28;19920;-80
2023/09/12 16:25:34;;;;;;;;;;;;;;;;;;5006759;28;19924;-81
2023/09/12 16:28:00;;;;;;;;;;;;;;;;;;4990936;28;19909;-83
2023/09/12 16:30:26;;;;;;;;;;;;;;;;;;4999145;28;19917;-81
2023/09/12 16:32:52;;;;;;;;;;;;;;;;;;5009102;28;19909;-81
2023/09/12 16:35:18;;;;;;;;;;;;;;;;;;4999889;28;19948;-80
2023/09/12 16:37:44;;;;;;;;;;;;;;;;;;4998238;28;19931;-85